PWSweather.com
Personal Weather Stations
Station Observations
KV9EWX
Winnebago, Il, Winnebago, IL 61088

Winnebago, IlWinnebago, IL 61088

Lat: 42.261175, Lon: -89.236369

Elevation: 892

Station Type: Lacrosse ws-2811

Latest ConditionsUpdated 2:22:10 AM CDT Wednesday, Jul 23, 2014
Currently Today's Max Today's Min Today's Average
Temperature 69.5°F20.8°C 75.2°F24.0°C 69.5°F20.8°C 72.3°F22.4°C
Dew Point 63.7°F17.6°C 68.0°F20.0°C 63.7°F17.6°C 65.6°F18.7°C
Winds 3.5 mph N5.6 kmh N 5.4 mph N8.7 kmh N - 3.2 mph 5.1 kmh
Wind Gusts 7.0 mph11.3 kmh 10.0 mph16.1 kmh - -
Humidity 82% 82% 78% 79%
Pressure 29.69 in1005.4 mb 29.69 in1005.4 mb 29.64 in1003.7 mb -
Hour Temp Dew Point Humidity Winds Wind Gusts Pressure Precip Precip Rate Daily Precip Total
02:22 AM 69.5°F20.8°C 63.7°F17.6°C 82% 3.5 mph N5.6 kmh N 7.0 mph11.3 kmh 29.69 in1005.4 mb 0.00 in0.0 mm 0.00 in/hr0.0 mm/hr 0.00 in0.0 mm
02:17 AM 69.8°F21.0°C 64.1°F17.8°C 82% 1.5 mph NE2.4 kmh NE 4.4 mph7.1 kmh 29.69 in1005.4 mb 0.00 in0.0 mm 0.00 in/hr0.0 mm/hr 0.00 in0.0 mm
02:12 AM 70.0°F21.1°C 63.9°F17.7°C 81% 1.7 mph N2.7 kmh N 4.1 mph6.6 kmh 29.69 in1005.4 mb 0.00 in0.0 mm 0.00 in/hr0.0 mm/hr 0.00 in0.0 mm
02:07 AM 70.2°F21.2°C 64.1°F17.8°C 81% 2.4 mph NNE3.9 kmh NNE 7.0 mph11.3 kmh 29.69 in1005.4 mb 0.00 in0.0 mm 0.00 in/hr0.0 mm/hr 0.00 in0.0 mm
02:02 AM 70.4°F21.3°C 64.3°F17.9°C 81% 2.3 mph N3.7 kmh N 9.5 mph15.3 kmh 29.69 in1005.4 mb 0.00 in0.0 mm 0.00 in/hr0.0 mm/hr 0.00 in0.0 mm
01:57 AM 70.6°F21.4°C 64.5°F18.1°C 81% 5.0 mph N8.0 kmh N 9.5 mph15.3 kmh 29.68 in1005.1 mb 0.00 in0.0 mm 0.00 in/hr0.0 mm/hr 0.00 in0.0 mm
01:52 AM 70.6°F21.4°C 64.1°F17.8°C 80% 3.0 mph N4.8 kmh N 4.6 mph7.4 kmh 29.68 in1005.1 mb 0.00 in0.0 mm 0.00 in/hr0.0 mm/hr 0.00 in0.0 mm
01:47 AM 70.9°F21.6°C 64.4°F18.0°C 80% 2.3 mph NNE3.7 kmh NNE 4.4 mph7.1 kmh 29.68 in1005.1 mb 0.00 in0.0 mm 0.00 in/hr0.0 mm/hr 0.00 in0.0 mm
01:42 AM 70.9°F21.6°C 64.4°F18.0°C 80% 2.4 mph NNE3.9 kmh NNE 7.4 mph11.9 kmh 29.68 in1005.1 mb 0.00 in0.0 mm 0.00 in/hr0.0 mm/hr 0.00 in0.0 mm
01:37 AM 71.3°F21.8°C 64.8°F18.2°C 80% 3.8 mph N6.1 kmh N 7.4 mph11.9 kmh 29.68 in1005.1 mb 0.00 in0.0 mm 0.00 in/hr0.0 mm/hr 0.00 in0.0 mm
01:32 AM 71.5°F21.9°C 65.0°F18.3°C 80% 3.1 mph N5.0 kmh N 5.1 mph8.2 kmh 29.68 in1005.1 mb 0.00 in0.0 mm 0.00 in/hr0.0 mm/hr 0.00 in0.0 mm
01:27 AM 71.6°F22.0°C 65.2°F18.4°C 80% 2.7 mph N4.3 kmh N 7.4 mph11.9 kmh 29.68 in1005.1 mb 0.00 in0.0 mm 0.00 in/hr0.0 mm/hr 0.00 in0.0 mm
01:22 AM 71.8°F22.1°C 65.3°F18.5°C 80% 3.8 mph NNE6.1 kmh NNE 7.4 mph11.9 kmh 29.67 in1004.7 mb 0.00 in0.0 mm 0.00 in/hr0.0 mm/hr 0.00 in0.0 mm
01:16 AM 72.2°F22.3°C 65.4°F18.6°C 79% 3.1 mph NNE5.0 kmh NNE 6.5 mph10.5 kmh 29.67 in1004.7 mb 0.00 in0.0 mm 0.00 in/hr0.0 mm/hr 0.00 in0.0 mm
01:11 AM 72.4°F22.4°C 65.5°F18.6°C 79% 2.0 mph N3.2 kmh N 6.8 mph10.9 kmh 29.67 in1004.7 mb 0.00 in0.0 mm 0.00 in/hr0.0 mm/hr 0.00 in0.0 mm
01:06 AM 72.5°F22.5°C 65.7°F18.7°C 79% 2.8 mph 4.5 kmh 6.8 mph10.9 kmh 29.67 in1004.7 mb 0.00 in0.0 mm 0.00 in/hr0.0 mm/hr 0.00 in0.0 mm
01:01 AM 72.9°F22.7°C 66.1°F18.9°C 79% 1.9 mph N3.1 kmh N 9.5 mph15.3 kmh 29.67 in1004.7 mb 0.00 in0.0 mm 0.00 in/hr0.0 mm/hr 0.00 in0.0 mm
12:56 AM 73.1°F22.8°C 65.9°F18.8°C 78% 5.4 mph N8.7 kmh N 9.5 mph15.3 kmh 29.67 in1004.7 mb 0.00 in0.0 mm 0.00 in/hr0.0 mm/hr 0.00 in0.0 mm
12:51 AM 73.3°F22.9°C 66.1°F18.9°C 78% 4.6 mph N7.4 kmh N 9.5 mph15.3 kmh 29.67 in1004.7 mb 0.00 in0.0 mm 0.00 in/hr0.0 mm/hr 0.00 in0.0 mm
12:46 AM 73.4°F23.0°C 66.3°F19.1°C 78% 4.2 mph NNE6.8 kmh NNE 8.1 mph13.0 kmh 29.66 in1004.4 mb 0.00 in0.0 mm 0.00 in/hr0.0 mm/hr 0.00 in0.0 mm
12:41 AM 73.6°F23.1°C 66.4°F19.1°C 78% 3.0 mph N4.8 kmh N 8.1 mph13.0 kmh 29.66 in1004.4 mb 0.00 in0.0 mm 0.00 in/hr0.0 mm/hr 0.00 in0.0 mm
12:36 AM 73.8°F23.2°C 66.6°F19.2°C 78% 4.3 mph N6.9 kmh N 8.1 mph13.0 kmh 29.66 in1004.4 mb 0.00 in0.0 mm 0.00 in/hr0.0 mm/hr 0.00 in0.0 mm
12:31 AM 74.0°F23.3°C 66.7°F19.3°C 78% 2.4 mph N3.9 kmh N 7.0 mph11.3 kmh 29.66 in1004.4 mb 0.00 in0.0 mm 0.00 in/hr0.0 mm/hr 0.00 in0.0 mm
12:26 AM 74.2°F23.4°C 66.9°F19.4°C 78% 5.4 mph N8.7 kmh N 7.0 mph11.3 kmh 29.66 in1004.4 mb 0.00 in0.0 mm 0.00 in/hr0.0 mm/hr 0.00 in0.0 mm
12:21 AM 74.2°F23.4°C 66.9°F19.4°C 78% 3.2 mph 5.1 kmh 6.5 mph10.5 kmh 29.66 in1004.4 mb 0.00 in0.0 mm 0.00 in/hr0.0 mm/hr 0.00 in0.0 mm
12:16 AM 74.5°F23.6°C 67.2°F19.6°C 78% 2.2 mph NNE3.5 kmh NNE 10.0 mph16.1 kmh 29.65 in1004.1 mb 0.00 in0.0 mm 0.00 in/hr0.0 mm/hr 0.00 in0.0 mm
12:11 AM 74.7°F23.7°C 67.4°F19.7°C 78% 3.3 mph 5.3 kmh 10.0 mph16.1 kmh 29.65 in1004.1 mb 0.00 in0.0 mm 0.00 in/hr0.0 mm/hr 0.00 in0.0 mm
12:06 AM 74.9°F23.8°C 67.6°F19.8°C 78% 4.0 mph NNE6.4 kmh NNE 7.4 mph11.9 kmh 29.64 in1003.7 mb 0.00 in0.0 mm 0.00 in/hr0.0 mm/hr 0.00 in0.0 mm
12:01 AM 75.2°F24.0°C 68.0°F20.0°C 78% 2.5 mph N4.0 kmh N 8.1 mph13.0 kmh 29.64 in1003.7 mb 0.00 in0.0 mm 0.00 in/hr0.0 mm/hr 0.00 in0.0 mm